This is the latest recevied weather packets stored in our database for station/object W3BRL. If no packets are shown the sender has not sent any weather packets the latest 10 day(s).
| Time | Temp. | Humidity | Pressure | Rain* | Wind** | Luminosity | Snow |
|---|---|---|---|---|---|---|---|
| 1777229500 | 12.78° C | 62% | 1017.8 hPa | 0 mm | - | 841 W/m² | - |
| 1777229197 | 12.22° C | 64% | 1017.8 hPa | 0 mm | - | 774 W/m² | - |
| 1777228894 | 12.22° C | 65% | 1017.8 hPa | 0 mm | - | 432 W/m² | - |
| 1777228590 | 12.22° C | 65% | 1017.8 hPa | 0 mm | - | 624 W/m² | - |
| 1777228287 | 13.33° C | 63% | 1017.8 hPa | 0 mm | - | 386 W/m² | - |
| 1777227986 | 12.22° C | 66% | 1017.5 hPa | 0 mm | - | 418 W/m² | - |
| 1777227681 | 12.22° C | 66% | 1017.8 hPa | 0 mm | - | 445 W/m² | - |
| 1777227377 | 11.67° C | 67% | 1017.8 hPa | 0 mm | - | 526 W/m² | - |
| 1777227074 | 11.67° C | 67% | 1017.9 hPa | 0 mm | - | 446 W/m² | - |
| 1777226769 | 12.22° C | 66% | 1017.8 hPa | 0 mm | - | 537 W/m² | - |
| 1777226464 | 11.67° C | 67% | 1017.9 hPa | 0 mm | - | 480 W/m² | - |
| 1777226160 | 11.67° C | 68% | 1017.8 hPa | 0 mm | - | 458 W/m² | - |
| 1777225856 | 11.67° C | 67% | 1017.8 hPa | 0 mm | - | 443 W/m² | - |
| 1777225552 | 11.67° C | 69% | 1017.6 hPa | 0 mm | - | 471 W/m² | - |
| 1777225250 | 11.11° C | 70% | 1017.8 hPa | 0 mm | - | 411 W/m² | - |
| 1777224946 | 11.11° C | 70% | 1017.6 hPa | 0 mm | - | 362 W/m² | - |
| 1777224644 | 11.11° C | 70% | 1017.5 hPa | 0 mm | - | 391 W/m² | - |
| 1777224343 | 11.11° C | 71% | 1017.6 hPa | 0 mm | - | 369 W/m² | - |
| 1777224039 | 10.56° C | 71% | 1017.7 hPa | 0 mm | - | 418 W/m² | - |
| 1777223737 | 10.56° C | 71% | 1017.7 hPa | 0 mm | - | 375 W/m² | - |
| 1777223432 | 10.56° C | 72% | 1017.8 hPa | 0 mm | - | 349 W/m² | - |
| 1777223131 | 10.56° C | 73% | 1017.7 hPa | 0 mm | - | 327 W/m² | - |
| 1777222827 | 10.56° C | 71% | 1017.9 hPa | 0 mm | - | 346 W/m² | - |
| 1777222525 | 10.56° C | 72% | 1017.8 hPa | 0 mm | - | 329 W/m² | - |
| 1777222222 | 10.56° C | 71% | 1017.7 hPa | 0 mm | - | 367 W/m² | - |
* Rain latest hour (hover to see other rain measurements)
** Current wind speed in m/s (hover to see current wind gust speed)